sensor_id;sensor_type;location;lat;lon;timestamp;temperature;humidity
23122;DHT22;11730;51.248;22.534;2022-12-18T00:02:15;-6.60;99.90
23122;DHT22;11730;51.248;22.534;2022-12-18T00:04:42;-6.70;99.90
23122;DHT22;11730;51.248;22.534;2022-12-18T00:07:09;-6.60;99.90
23122;DHT22;11730;51.248;22.534;2022-12-18T00:09:36;-6.60;99.90
23122;DHT22;11730;51.248;22.534;2022-12-18T00:12:06;-6.60;99.90
23122;DHT22;11730;51.248;22.534;2022-12-18T00:14:42;-6.70;99.90
23122;DHT22;11730;51.248;22.534;2022-12-18T00:17:09;-6.50;99.90
23122;DHT22;11730;51.248;22.534;2022-12-18T00:19:35;-6.50;99.90
23122;DHT22;11730;51.248;22.534;2022-12-18T00:22:02;-6.60;99.90
23122;DHT22;11730;51.248;22.534;2022-12-18T00:24:29;-6.70;99.90
23122;DHT22;11730;51.248;22.534;2022-12-18T00:26:56;-6.80;99.90
23122;DHT22;11730;51.248;22.534;2022-12-18T00:29:23;-6.80;99.90
23122;DHT22;11730;51.248;22.534;2022-12-18T00:31:50;-6.90;99.90
23122;DHT22;11730;51.248;22.534;2022-12-18T00:34:17;-6.90;99.90
23122;DHT22;11730;51.248;22.534;2022-12-18T00:36:46;-6.90;99.90
23122;DHT22;11730;51.248;22.534;2022-12-18T00:39:13;-6.90;99.90
23122;DHT22;11730;51.248;22.534;2022-12-18T00:41:40;-6.80;99.90
23122;DHT22;11730;51.248;22.534;2022-12-18T00:44:26;-6.80;99.90
23122;DHT22;11730;51.248;22.534;2022-12-18T00:46:53;-6.80;99.90
23122;DHT22;11730;51.248;22.534;2022-12-18T00:49:20;-6.80;99.90
23122;DHT22;11730;51.248;22.534;2022-12-18T00:51:48;-6.90;99.90
23122;DHT22;11730;51.248;22.534;2022-12-18T00:54:16;-6.90;99.90
23122;DHT22;11730;51.248;22.534;2022-12-18T00:56:43;-6.80;99.90
23122;DHT22;11730;51.248;22.534;2022-12-18T00:59:16;-6.80;99.90
23122;DHT22;11730;51.248;22.534;2022-12-18T01:01:43;-6.70;99.90
23122;DHT22;11730;51.248;22.534;2022-12-18T01:04:10;-6.60;99.90
23122;DHT22;11730;51.248;22.534;2022-12-18T01:06:37;-6.50;99.90
23122;DHT22;11730;51.248;22.534;2022-12-18T01:09:06;-6.80;99.90
23122;DHT22;11730;51.248;22.534;2022-12-18T01:11:33;-7.00;99.90
23122;DHT22;11730;51.248;22.534;2022-12-18T01:14:00;-6.90;99.90
23122;DHT22;11730;51.248;22.534;2022-12-18T01:16:27;-6.90;99.90
23122;DHT22;11730;51.248;22.534;2022-12-18T01:18:54;-7.00;99.90
23122;DHT22;11730;51.248;22.534;2022-12-18T01:21:22;-6.90;99.90
23122;DHT22;11730;51.248;22.534;2022-12-18T01:23:54;-7.00;99.90
23122;DHT22;11730;51.248;22.534;2022-12-18T01:26:22;-7.00;99.90
23122;DHT22;11730;51.248;22.534;2022-12-18T01:28:49;-7.00;99.90
23122;DHT22;11730;51.248;22.534;2022-12-18T01:31:17;-7.00;99.90
23122;DHT22;11730;51.248;22.534;2022-12-18T01:33:50;-7.00;99.90
23122;DHT22;11730;51.248;22.534;2022-12-18T01:36:26;-7.00;99.90
23122;DHT22;11730;51.248;22.534;2022-12-18T01:38:54;-7.00;99.90
23122;DHT22;11730;51.248;22.534;2022-12-18T01:41:24;-6.90;99.90
23122;DHT22;11730;51.248;22.534;2022-12-18T01:43:53;-7.10;99.90
23122;DHT22;11730;51.248;22.534;2022-12-18T01:46:22;-7.00;99.90
23122;DHT22;11730;51.248;22.534;2022-12-18T01:48:54;-7.00;99.90
23122;DHT22;11730;51.248;22.534;2022-12-18T01:51:24;-6.90;99.90
23122;DHT22;11730;51.248;22.534;2022-12-18T01:53:52;-6.90;99.90
23122;DHT22;11730;51.248;22.534;2022-12-18T01:56:20;-6.90;99.90
23122;DHT22;11730;51.248;22.534;2022-12-18T01:59:01;-6.90;99.90
23122;DHT22;11730;51.248;22.534;2022-12-18T02:01:30;-6.90;99.90
23122;DHT22;11730;51.248;22.534;2022-12-18T02:04:30;-6.90;99.90
23122;DHT22;11730;51.248;22.534;2022-12-18T02:09:39;-6.90;99.90
23122;DHT22;11730;51.248;22.534;2022-12-18T02:12:18;-6.90;99.90
23122;DHT22;11730;51.248;22.534;2022-12-18T02:15:08;-6.80;99.90
23122;DHT22;11730;51.248;22.534;2022-12-18T02:17:58;-6.80;99.90
23122;DHT22;11730;51.248;22.534;2022-12-18T02:20:34;-6.90;99.90
23122;DHT22;11730;51.248;22.534;2022-12-18T02:26:06;-6.80;99.90
23122;DHT22;11730;51.248;22.534;2022-12-18T02:28:40;-6.70;99.90
23122;DHT22;11730;51.248;22.534;2022-12-18T02:31:11;-6.70;99.90
23122;DHT22;11730;51.248;22.534;2022-12-18T02:33:41;-6.70;99.90
23122;DHT22;11730;51.248;22.534;2022-12-18T02:36:09;-6.70;99.90
23122;DHT22;11730;51.248;22.534;2022-12-18T02:38:37;-6.70;99.90
23122;DHT22;11730;51.248;22.534;2022-12-18T02:41:05;-6.60;99.90
23122;DHT22;11730;51.248;22.534;2022-12-18T02:43:33;-6.60;99.90
23122;DHT22;11730;51.248;22.534;2022-12-18T02:46:20;-6.60;99.90
23122;DHT22;11730;51.248;22.534;2022-12-18T02:48:49;-6.60;99.90
23122;DHT22;11730;51.248;22.534;2022-12-18T02:51:18;-6.60;99.90
23122;DHT22;11730;51.248;22.534;2022-12-18T02:53:56;-6.60;99.90
23122;DHT22;11730;51.248;22.534;2022-12-18T02:56:48;-6.60;99.90
23122;DHT22;11730;51.248;22.534;2022-12-18T02:59:24;-6.60;99.90
23122;DHT22;11730;51.248;22.534;2022-12-18T03:02:01;-6.60;99.90
23122;DHT22;11730;51.248;22.534;2022-12-18T03:04:39;-6.60;99.90
23122;DHT22;11730;51.248;22.534;2022-12-18T03:07:12;-6.60;99.90
23122;DHT22;11730;51.248;22.534;2022-12-18T03:09:45;-6.60;99.90
23122;DHT22;11730;51.248;22.534;2022-12-18T03:12:24;-6.60;99.90
23122;DHT22;11730;51.248;22.534;2022-12-18T03:17:48;-6.50;99.90
23122;DHT22;11730;51.248;22.534;2022-12-18T03:20:20;-6.50;99.90
23122;DHT22;11730;51.248;22.534;2022-12-18T03:22:57;-6.60;99.90
23122;DHT22;11730;51.248;22.534;2022-12-18T03:25:27;-6.60;99.90
23122;DHT22;11730;51.248;22.534;2022-12-18T03:27:56;-6.50;99.90
23122;DHT22;11730;51.248;22.534;2022-12-18T03:30:26;-6.50;99.90
23122;DHT22;11730;51.248;22.534;2022-12-18T03:33:08;-6.40;99.90
23122;DHT22;11730;51.248;22.534;2022-12-18T03:35:39;-6.40;99.90
23122;DHT22;11730;51.248;22.534;2022-12-18T03:38:07;-6.00;99.90
23122;DHT22;11730;51.248;22.534;2022-12-18T03:43:18;-6.30;99.90
23122;DHT22;11730;51.248;22.534;2022-12-18T03:45:52;-6.20;99.90
23122;DHT22;11730;51.248;22.534;2022-12-18T03:48:31;-6.20;99.90
23122;DHT22;11730;51.248;22.534;2022-12-18T03:51:06;-6.20;99.90
23122;DHT22;11730;51.248;22.534;2022-12-18T03:53:47;-6.20;99.90
23122;DHT22;11730;51.248;22.534;2022-12-18T03:56:17;-6.20;99.90
23122;DHT22;11730;51.248;22.534;2022-12-18T03:58:46;-6.20;99.90
23122;DHT22;11730;51.248;22.534;2022-12-18T04:01:16;-6.10;99.90
23122;DHT22;11730;51.248;22.534;2022-12-18T04:03:46;-5.70;99.90
23122;DHT22;11730;51.248;22.534;2022-12-18T04:06:15;-6.10;99.90
23122;DHT22;11730;51.248;22.534;2022-12-18T04:08:43;-6.00;99.90
23122;DHT22;11730;51.248;22.534;2022-12-18T04:11:10;-5.80;99.90
23122;DHT22;11730;51.248;22.534;2022-12-18T04:13:38;-6.00;99.90
23122;DHT22;11730;51.248;22.534;2022-12-18T04:16:06;-6.00;99.90
23122;DHT22;11730;51.248;22.534;2022-12-18T04:18:33;-6.00;99.90
23122;DHT22;11730;51.248;22.534;2022-12-18T04:21:00;-5.80;99.90
23122;DHT22;11730;51.248;22.534;2022-12-18T04:23:27;-5.80;99.90
23122;DHT22;11730;51.248;22.534;2022-12-18T04:25:54;-5.80;99.90
23122;DHT22;11730;51.248;22.534;2022-12-18T04:28:21;-5.70;99.90
23122;DHT22;11730;51.248;22.534;2022-12-18T04:30:48;-5.70;99.90
23122;DHT22;11730;51.248;22.534;2022-12-18T04:33:15;-5.60;99.90
23122;DHT22;11730;51.248;22.534;2022-12-18T04:35:43;-5.70;99.90
23122;DHT22;11730;51.248;22.534;2022-12-18T04:38:10;-5.70;99.90
23122;DHT22;11730;51.248;22.534;2022-12-18T04:40:37;-5.70;99.90
23122;DHT22;11730;51.248;22.534;2022-12-18T04:43:06;-5.60;99.90
23122;DHT22;11730;51.248;22.534;2022-12-18T04:45:33;-5.70;99.90
23122;DHT22;11730;51.248;22.534;2022-12-18T04:48:01;-5.60;99.90
23122;DHT22;11730;51.248;22.534;2022-12-18T04:50:29;-5.70;99.90
23122;DHT22;11730;51.248;22.534;2022-12-18T04:52:56;-5.70;99.90
23122;DHT22;11730;51.248;22.534;2022-12-18T04:55:24;-5.60;99.90
23122;DHT22;11730;51.248;22.534;2022-12-18T04:57:52;-5.70;99.90
23122;DHT22;11730;51.248;22.534;2022-12-18T05:00:20;-5.60;99.90
23122;DHT22;11730;51.248;22.534;2022-12-18T05:02:47;-5.80;99.90
23122;DHT22;11730;51.248;22.534;2022-12-18T05:05:14;-5.80;99.90
23122;DHT22;11730;51.248;22.534;2022-12-18T05:07:41;-5.70;99.90
23122;DHT22;11730;51.248;22.534;2022-12-18T05:10:09;-5.70;99.90
23122;DHT22;11730;51.248;22.534;2022-12-18T05:12:36;-5.70;99.90
23122;DHT22;11730;51.248;22.534;2022-12-18T05:15:23;-5.80;99.90
23122;DHT22;11730;51.248;22.534;2022-12-18T05:17:50;-5.70;99.90
23122;DHT22;11730;51.248;22.534;2022-12-18T05:20:17;-5.70;99.90
23122;DHT22;11730;51.248;22.534;2022-12-18T05:22:44;-5.80;99.90
23122;DHT22;11730;51.248;22.534;2022-12-18T05:25:11;-5.70;99.90
23122;DHT22;11730;51.248;22.534;2022-12-18T05:27:38;-5.70;99.90
23122;DHT22;11730;51.248;22.534;2022-12-18T05:30:06;-5.70;99.90
23122;DHT22;11730;51.248;22.534;2022-12-18T05:32:33;-5.80;99.90
23122;DHT22;11730;51.248;22.534;2022-12-18T05:35:00;-5.80;99.90
23122;DHT22;11730;51.248;22.534;2022-12-18T05:37:26;-5.80;99.90
23122;DHT22;11730;51.248;22.534;2022-12-18T05:39:53;-4.60;99.90
23122;DHT22;11730;51.248;22.534;2022-12-18T05:42:21;-5.80;99.90
23122;DHT22;11730;51.248;22.534;2022-12-18T05:44:47;-5.70;99.90
23122;DHT22;11730;51.248;22.534;2022-12-18T05:47:14;-5.60;99.90
23122;DHT22;11730;51.248;22.534;2022-12-18T05:49:41;-5.70;99.90
23122;DHT22;11730;51.248;22.534;2022-12-18T05:52:09;-5.70;99.90
23122;DHT22;11730;51.248;22.534;2022-12-18T05:54:36;-5.80;99.90
23122;DHT22;11730;51.248;22.534;2022-12-18T05:57:03;-5.70;99.90
23122;DHT22;11730;51.248;22.534;2022-12-18T05:59:30;-5.80;99.90
23122;DHT22;11730;51.248;22.534;2022-12-18T06:01:56;-5.80;99.90
23122;DHT22;11730;51.248;22.534;2022-12-18T06:04:24;-5.80;99.90
23122;DHT22;11730;51.248;22.534;2022-12-18T06:06:52;-5.90;99.90
23122;DHT22;11730;51.248;22.534;2022-12-18T06:09:19;-5.70;99.90
23122;DHT22;11730;51.248;22.534;2022-12-18T06:11:46;-5.70;99.90
23122;DHT22;11730;51.248;22.534;2022-12-18T06:14:13;-5.70;99.90
23122;DHT22;11730;51.248;22.534;2022-12-18T06:16:40;-5.70;99.90
23122;DHT22;11730;51.248;22.534;2022-12-18T06:19:07;-5.80;99.90
23122;DHT22;11730;51.248;22.534;2022-12-18T06:21:34;-5.80;99.90
23122;DHT22;11730;51.248;22.534;2022-12-18T06:24:01;-5.80;99.90
23122;DHT22;11730;51.248;22.534;2022-12-18T06:26:28;-5.80;99.90
23122;DHT22;11730;51.248;22.534;2022-12-18T06:28:55;-5.70;99.90
23122;DHT22;11730;51.248;22.534;2022-12-18T06:31:23;-5.70;99.90
23122;DHT22;11730;51.248;22.534;2022-12-18T06:33:50;-5.70;99.90
23122;DHT22;11730;51.248;22.534;2022-12-18T06:36:18;-5.50;99.90
23122;DHT22;11730;51.248;22.534;2022-12-18T06:38:45;-5.70;99.90
23122;DHT22;11730;51.248;22.534;2022-12-18T06:41:20;-5.70;99.90
23122;DHT22;11730;51.248;22.534;2022-12-18T06:43:47;-5.60;99.90
23122;DHT22;11730;51.248;22.534;2022-12-18T06:46:14;-5.60;99.90
23122;DHT22;11730;51.248;22.534;2022-12-18T06:48:41;-5.40;99.90
23122;DHT22;11730;51.248;22.534;2022-12-18T06:51:08;-5.40;99.90
23122;DHT22;11730;51.248;22.534;2022-12-18T06:53:35;-5.40;99.90
23122;DHT22;11730;51.248;22.534;2022-12-18T06:56:06;-5.50;99.90
23122;DHT22;11730;51.248;22.534;2022-12-18T06:58:37;-5.30;99.90
23122;DHT22;11730;51.248;22.534;2022-12-18T07:01:07;-5.00;99.90
23122;DHT22;11730;51.248;22.534;2022-12-18T07:03:34;-5.40;99.90
23122;DHT22;11730;51.248;22.534;2022-12-18T07:06:02;-5.10;99.90
23122;DHT22;11730;51.248;22.534;2022-12-18T07:08:29;-5.20;99.90
23122;DHT22;11730;51.248;22.534;2022-12-18T07:10:57;-5.30;99.90
23122;DHT22;11730;51.248;22.534;2022-12-18T07:13:24;-5.40;99.90
23122;DHT22;11730;51.248;22.534;2022-12-18T07:15:51;-5.30;99.90
23122;DHT22;11730;51.248;22.534;2022-12-18T07:18:18;-5.30;99.90
23122;DHT22;11730;51.248;22.534;2022-12-18T07:20:45;-5.30;99.90
23122;DHT22;11730;51.248;22.534;2022-12-18T07:23:13;-5.30;99.90
23122;DHT22;11730;51.248;22.534;2022-12-18T07:25:40;-5.20;99.90
23122;DHT22;11730;51.248;22.534;2022-12-18T07:28:07;-5.20;99.90
23122;DHT22;11730;51.248;22.534;2022-12-18T07:30:41;-5.20;99.90
23122;DHT22;11730;51.248;22.534;2022-12-18T07:33:08;-5.20;99.90
23122;DHT22;11730;51.248;22.534;2022-12-18T07:35:35;-5.20;99.90
23122;DHT22;11730;51.248;22.534;2022-12-18T07:38:02;-5.10;99.90
23122;DHT22;11730;51.248;22.534;2022-12-18T07:40:29;-5.20;99.90
23122;DHT22;11730;51.248;22.534;2022-12-18T07:42:55;-5.10;99.90
23122;DHT22;11730;51.248;22.534;2022-12-18T07:45:22;-5.00;99.90
23122;DHT22;11730;51.248;22.534;2022-12-18T07:47:49;-5.10;99.90
23122;DHT22;11730;51.248;22.534;2022-12-18T07:50:16;-5.10;99.90
23122;DHT22;11730;51.248;22.534;2022-12-18T07:52:43;-5.10;99.90
23122;DHT22;11730;51.248;22.534;2022-12-18T07:55:10;-5.00;99.90
23122;DHT22;11730;51.248;22.534;2022-12-18T07:57:37;-4.90;99.90
23122;DHT22;11730;51.248;22.534;2022-12-18T08:00:24;-5.00;99.90
23122;DHT22;11730;51.248;22.534;2022-12-18T08:02:51;-5.00;99.90
23122;DHT22;11730;51.248;22.534;2022-12-18T08:05:18;-4.90;99.90
23122;DHT22;11730;51.248;22.534;2022-12-18T08:07:45;-4.80;99.90
23122;DHT22;11730;51.248;22.534;2022-12-18T08:10:12;-4.80;99.90
23122;DHT22;11730;51.248;22.534;2022-12-18T08:12:39;-4.80;99.90
23122;DHT22;11730;51.248;22.534;2022-12-18T08:15:07;-4.80;99.90
23122;DHT22;11730;51.248;22.534;2022-12-18T08:17:34;-4.60;99.90
23122;DHT22;11730;51.248;22.534;2022-12-18T08:20:01;-4.60;99.90
23122;DHT22;11730;51.248;22.534;2022-12-18T08:22:28;-4.70;99.90
23122;DHT22;11730;51.248;22.534;2022-12-18T08:24:55;-4.60;99.90
23122;DHT22;11730;51.248;22.534;2022-12-18T08:27:21;-4.70;99.90
23122;DHT22;11730;51.248;22.534;2022-12-18T08:29:56;-4.80;99.90
23122;DHT22;11730;51.248;22.534;2022-12-18T08:32:25;-4.70;99.90
23122;DHT22;11730;51.248;22.534;2022-12-18T08:34:52;-4.70;99.90
23122;DHT22;11730;51.248;22.534;2022-12-18T08:37:19;-4.70;99.90
23122;DHT22;11730;51.248;22.534;2022-12-18T08:39:46;-4.70;99.90
23122;DHT22;11730;51.248;22.534;2022-12-18T08:42:13;-4.60;99.90
23122;DHT22;11730;51.248;22.534;2022-12-18T08:44:59;-4.70;99.90
23122;DHT22;11730;51.248;22.534;2022-12-18T08:47:26;-4.50;99.90
23122;DHT22;11730;51.248;22.534;2022-12-18T08:49:53;-4.60;99.90
23122;DHT22;11730;51.248;22.534;2022-12-18T08:52:20;-4.40;99.90
23122;DHT22;11730;51.248;22.534;2022-12-18T08:54:46;-4.30;99.90
23122;DHT22;11730;51.248;22.534;2022-12-18T08:57:13;-4.50;99.90
23122;DHT22;11730;51.248;22.534;2022-12-18T08:59:40;-4.50;99.90
23122;DHT22;11730;51.248;22.534;2022-12-18T09:02:10;-4.50;99.90
23122;DHT22;11730;51.248;22.534;2022-12-18T09:04:37;-4.50;99.90
23122;DHT22;11730;51.248;22.534;2022-12-18T09:07:06;-4.40;99.90
23122;DHT22;11730;51.248;22.534;2022-12-18T09:09:33;-4.40;99.90
23122;DHT22;11730;51.248;22.534;2022-12-18T09:12:00;-4.40;99.90
23122;DHT22;11730;51.248;22.534;2022-12-18T09:14:27;-4.40;99.90
23122;DHT22;11730;51.248;22.534;2022-12-18T09:16:54;-4.50;99.90
23122;DHT22;11730;51.248;22.534;2022-12-18T09:19:21;-4.50;99.90
23122;DHT22;11730;51.248;22.534;2022-12-18T09:21:48;-4.50;99.90
23122;DHT22;11730;51.248;22.534;2022-12-18T09:24:15;-4.40;99.90
23122;DHT22;11730;51.248;22.534;2022-12-18T09:26:43;-4.40;99.90
23122;DHT22;11730;51.248;22.534;2022-12-18T09:29:13;-4.50;99.90
23122;DHT22;11730;51.248;22.534;2022-12-18T09:31:42;-4.50;99.90
23122;DHT22;11730;51.248;22.534;2022-12-18T09:34:08;-4.60;99.90
23122;DHT22;11730;51.248;22.534;2022-12-18T09:36:36;-4.50;99.90
23122;DHT22;11730;51.248;22.534;2022-12-18T09:39:03;-4.60;99.90
23122;DHT22;11730;51.248;22.534;2022-12-18T09:41:47;-4.60;99.90
23122;DHT22;11730;51.248;22.534;2022-12-18T09:47:04;-4.50;99.90
23122;DHT22;11730;51.248;22.534;2022-12-18T09:49:37;-4.50;99.90
23122;DHT22;11730;51.248;22.534;2022-12-18T09:54:39;-4.60;99.90
23122;DHT22;11730;51.248;22.534;2022-12-18T09:57:06;-4.60;99.90
23122;DHT22;11730;51.248;22.534;2022-12-18T09:59:38;-4.50;99.90
23122;DHT22;11730;51.248;22.534;2022-12-18T10:02:21;-4.70;99.90
23122;DHT22;11730;51.248;22.534;2022-12-18T10:07:57;-4.50;99.90
23122;DHT22;11730;51.248;22.534;2022-12-18T10:10:33;-4.50;99.90
23122;DHT22;11730;51.248;22.534;2022-12-18T10:18:42;-4.50;99.90
23122;DHT22;11730;51.248;22.534;2022-12-18T10:21:17;-4.40;99.90
23122;DHT22;11730;51.248;22.534;2022-12-18T10:26:28;-4.30;99.90
23122;DHT22;11730;51.248;22.534;2022-12-18T10:28:57;-4.40;99.90
23122;DHT22;11730;51.248;22.534;2022-12-18T10:31:31;-4.40;99.90
23122;DHT22;11730;51.248;22.534;2022-12-18T10:33:58;-4.40;99.90
23122;DHT22;11730;51.248;22.534;2022-12-18T10:36:25;-4.40;99.90
23122;DHT22;11730;51.248;22.534;2022-12-18T10:38:52;-4.40;99.90
23122;DHT22;11730;51.248;22.534;2022-12-18T10:43:51;-4.40;99.90
23122;DHT22;11730;51.248;22.534;2022-12-18T10:46:35;-4.50;99.90
23122;DHT22;11730;51.248;22.534;2022-12-18T10:49:03;-4.50;99.90
23122;DHT22;11730;51.248;22.534;2022-12-18T10:51:36;-4.50;99.90
23122;DHT22;11730;51.248;22.534;2022-12-18T10:54:24;-4.40;99.90
23122;DHT22;11730;51.248;22.534;2022-12-18T10:56:51;-4.40;99.90
23122;DHT22;11730;51.248;22.534;2022-12-18T10:59:53;-4.50;99.90
23122;DHT22;11730;51.248;22.534;2022-12-18T11:02:39;-4.60;99.90
23122;DHT22;11730;51.248;22.534;2022-12-18T11:05:32;-4.60;99.90
23122;DHT22;11730;51.248;22.534;2022-12-18T11:08:00;-4.50;99.90
23122;DHT22;11730;51.248;22.534;2022-12-18T11:10:32;-4.50;99.90
23122;DHT22;11730;51.248;22.534;2022-12-18T11:15:40;-4.50;99.90
23122;DHT22;11730;51.248;22.534;2022-12-18T11:18:17;-4.60;99.90
23122;DHT22;11730;51.248;22.534;2022-12-18T11:21:00;-4.80;99.90
23122;DHT22;11730;51.248;22.534;2022-12-18T11:23:31;-4.70;99.90
23122;DHT22;11730;51.248;22.534;2022-12-18T11:26:01;-4.70;99.90
23122;DHT22;11730;51.248;22.534;2022-12-18T11:28:41;-4.70;99.90
23122;DHT22;11730;51.248;22.534;2022-12-18T11:31:26;-4.60;99.90
23122;DHT22;11730;51.248;22.534;2022-12-18T11:36:47;-5.00;99.90
23122;DHT22;11730;51.248;22.534;2022-12-18T11:39:40;-5.00;99.90
23122;DHT22;11730;51.248;22.534;2022-12-18T11:44:49;-5.40;99.90
23122;DHT22;11730;51.248;22.534;2022-12-18T11:50:43;-5.10;99.90
23122;DHT22;11730;51.248;22.534;2022-12-18T11:53:11;-5.30;99.90
23122;DHT22;11730;51.248;22.534;2022-12-18T11:56:00;-5.30;99.90
23122;DHT22;11730;51.248;22.534;2022-12-18T11:58:38;-5.40;99.90
23122;DHT22;11730;51.248;22.534;2022-12-18T12:07:02;-5.60;99.90
23122;DHT22;11730;51.248;22.534;2022-12-18T12:10:37;-5.60;99.90
23122;DHT22;11730;51.248;22.534;2022-12-18T12:15:34;-5.50;99.90
23122;DHT22;11730;51.248;22.534;2022-12-18T12:18:13;-5.60;99.90
23122;DHT22;11730;51.248;22.534;2022-12-18T12:34:11;-5.50;99.90
23122;DHT22;11730;51.248;22.534;2022-12-18T12:36:51;-5.50;99.90
23122;DHT22;11730;51.248;22.534;2022-12-18T12:39:24;-5.50;99.90
23122;DHT22;11730;51.248;22.534;2022-12-18T12:41:54;-5.50;99.90
23122;DHT22;11730;51.248;22.534;2022-12-18T12:44:44;-5.50;99.90
23122;DHT22;11730;51.248;22.534;2022-12-18T12:47:28;-5.50;99.90
23122;DHT22;11730;51.248;22.534;2022-12-18T12:49:59;-5.40;99.90
23122;DHT22;11730;51.248;22.534;2022-12-18T12:54:56;-5.50;99.90
23122;DHT22;11730;51.248;22.534;2022-12-18T13:00:09;-5.40;99.90
23122;DHT22;11730;51.248;22.534;2022-12-18T13:03:15;-5.50;99.90
23122;DHT22;11730;51.248;22.534;2022-12-18T13:08:28;-5.90;99.90
23122;DHT22;11730;51.248;22.534;2022-12-18T13:11:01;-5.90;99.90
23122;DHT22;11730;51.248;22.534;2022-12-18T13:13:52;-5.80;99.90
23122;DHT22;11730;51.248;22.534;2022-12-18T13:16:24;-5.80;99.90
23122;DHT22;11730;51.248;22.534;2022-12-18T13:18:57;-5.70;99.90
23122;DHT22;11730;51.248;22.534;2022-12-18T13:21:30;-5.70;99.90
23122;DHT22;11730;51.248;22.534;2022-12-18T13:24:34;-5.70;99.90
23122;DHT22;11730;51.248;22.534;2022-12-18T13:38:37;-5.70;99.90
23122;DHT22;11730;51.248;22.534;2022-12-18T13:41:22;-5.80;99.90
23122;DHT22;11730;51.248;22.534;2022-12-18T13:43:52;-5.60;99.90
23122;DHT22;11730;51.248;22.534;2022-12-18T13:46:29;-5.80;99.90
23122;DHT22;11730;51.248;22.534;2022-12-18T13:51:28;-5.90;99.90
23122;DHT22;11730;51.248;22.534;2022-12-18T13:54:14;-5.90;99.90
23122;DHT22;11730;51.248;22.534;2022-12-18T13:56:46;-5.80;99.90
23122;DHT22;11730;51.248;22.534;2022-12-18T13:59:24;-5.80;99.90
23122;DHT22;11730;51.248;22.534;2022-12-18T14:01:59;-5.90;99.90
23122;DHT22;11730;51.248;22.534;2022-12-18T14:04:34;-6.00;99.90
23122;DHT22;11730;51.248;22.534;2022-12-18T14:07:12;-5.90;99.90
23122;DHT22;11730;51.248;22.534;2022-12-18T14:09:44;-5.60;99.90
23122;DHT22;11730;51.248;22.534;2022-12-18T14:12:24;-5.60;99.90
23122;DHT22;11730;51.248;22.534;2022-12-18T14:17:51;-5.90;99.90
23122;DHT22;11730;51.248;22.534;2022-12-18T14:20:20;-5.90;99.90
23122;DHT22;11730;51.248;22.534;2022-12-18T14:22:48;-5.80;99.90
23122;DHT22;11730;51.248;22.534;2022-12-18T14:28:12;-5.60;99.90
23122;DHT22;11730;51.248;22.534;2022-12-18T14:30:41;-5.50;99.90
23122;DHT22;11730;51.248;22.534;2022-12-18T14:33:16;-5.70;99.90
23122;DHT22;11730;51.248;22.534;2022-12-18T14:36:02;-5.40;99.90
23122;DHT22;11730;51.248;22.534;2022-12-18T14:38:37;-5.70;99.90
23122;DHT22;11730;51.248;22.534;2022-12-18T14:41:10;-5.50;99.90
23122;DHT22;11730;51.248;22.534;2022-12-18T14:43:40;-5.60;99.90
23122;DHT22;11730;51.248;22.534;2022-12-18T14:48:53;-5.40;99.90
23122;DHT22;11730;51.248;22.534;2022-12-18T14:51:26;-5.20;99.90
23122;DHT22;11730;51.248;22.534;2022-12-18T14:54:06;-5.40;99.90
23122;DHT22;11730;51.248;22.534;2022-12-18T14:56:47;-5.50;99.90
23122;DHT22;11730;51.248;22.534;2022-12-18T14:59:20;-5.70;99.90
23122;DHT22;11730;51.248;22.534;2022-12-18T15:02:20;-5.90;99.90
23122;DHT22;11730;51.248;22.534;2022-12-18T15:05:03;-6.10;99.90
23122;DHT22;11730;51.248;22.534;2022-12-18T15:07:52;-6.10;99.90
23122;DHT22;11730;51.248;22.534;2022-12-18T15:10:22;-5.90;99.90
23122;DHT22;11730;51.248;22.534;2022-12-18T15:20:48;-5.60;99.90
23122;DHT22;11730;51.248;22.534;2022-12-18T15:25:54;-6.00;99.90
23122;DHT22;11730;51.248;22.534;2022-12-18T15:28:28;-6.00;99.90
23122;DHT22;11730;51.248;22.534;2022-12-18T15:33:43;-5.50;99.90
23122;DHT22;11730;51.248;22.534;2022-12-18T15:36:12;-5.30;99.90
23122;DHT22;11730;51.248;22.534;2022-12-18T15:38:39;-5.30;99.90
23122;DHT22;11730;51.248;22.534;2022-12-18T15:41:13;-5.30;99.90
23122;DHT22;11730;51.248;22.534;2022-12-18T15:43:45;-5.30;99.90
23122;DHT22;11730;51.248;22.534;2022-12-18T15:46:18;-5.30;99.90
23122;DHT22;11730;51.248;22.534;2022-12-18T15:48:51;-5.20;99.90
23122;DHT22;11730;51.248;22.534;2022-12-18T15:51:29;-5.20;99.90
23122;DHT22;11730;51.248;22.534;2022-12-18T15:53:59;-5.20;99.90
23122;DHT22;11730;51.248;22.534;2022-12-18T15:56:27;-5.80;99.90
23122;DHT22;11730;51.248;22.534;2022-12-18T15:59:18;-5.90;99.90
23122;DHT22;11730;51.248;22.534;2022-12-18T16:01:47;-6.10;99.90
23122;DHT22;11730;51.248;22.534;2022-12-18T16:04:16;-6.10;99.90
23122;DHT22;11730;51.248;22.534;2022-12-18T16:06:44;-5.80;99.90
23122;DHT22;11730;51.248;22.534;2022-12-18T16:09:31;-5.90;99.90
23122;DHT22;11730;51.248;22.534;2022-12-18T16:11:57;-5.80;99.90
23122;DHT22;11730;51.248;22.534;2022-12-18T16:14:27;-5.70;99.90
23122;DHT22;11730;51.248;22.534;2022-12-18T16:16:59;-5.70;99.90
23122;DHT22;11730;51.248;22.534;2022-12-18T16:19:27;-5.60;99.90
23122;DHT22;11730;51.248;22.534;2022-12-18T16:21:56;-5.50;99.90
23122;DHT22;11730;51.248;22.534;2022-12-18T16:24:28;-5.40;99.90
23122;DHT22;11730;51.248;22.534;2022-12-18T16:26:57;-5.30;99.90
23122;DHT22;11730;51.248;22.534;2022-12-18T16:29:26;-5.40;99.90
23122;DHT22;11730;51.248;22.534;2022-12-18T16:31:58;-5.30;99.90
23122;DHT22;11730;51.248;22.534;2022-12-18T16:34:31;-5.50;99.90
23122;DHT22;11730;51.248;22.534;2022-12-18T16:37:04;-5.80;99.90
23122;DHT22;11730;51.248;22.534;2022-12-18T16:39:33;-5.80;99.90
23122;DHT22;11730;51.248;22.534;2022-12-18T16:42:03;-5.60;99.90
23122;DHT22;11730;51.248;22.534;2022-12-18T16:44:32;-6.00;99.90
23122;DHT22;11730;51.248;22.534;2022-12-18T16:47:00;-5.70;99.90
23122;DHT22;11730;51.248;22.534;2022-12-18T16:49:29;-5.70;99.90
23122;DHT22;11730;51.248;22.534;2022-12-18T16:51:56;-5.30;99.90
23122;DHT22;11730;51.248;22.534;2022-12-18T16:54:23;-5.80;99.90
23122;DHT22;11730;51.248;22.534;2022-12-18T16:56:51;-5.60;99.90
23122;DHT22;11730;51.248;22.534;2022-12-18T16:59:18;-5.70;99.90
23122;DHT22;11730;51.248;22.534;2022-12-18T17:01:46;-5.80;99.90
23122;DHT22;11730;51.248;22.534;2022-12-18T17:04:13;-5.50;99.90
23122;DHT22;11730;51.248;22.534;2022-12-18T17:06:43;-5.00;99.90
23122;DHT22;11730;51.248;22.534;2022-12-18T17:09:14;-5.60;99.90
23122;DHT22;11730;51.248;22.534;2022-12-18T17:11:44;-5.50;99.90
23122;DHT22;11730;51.248;22.534;2022-12-18T17:14:14;-5.90;99.90
23122;DHT22;11730;51.248;22.534;2022-12-18T17:16:41;-6.30;99.90
23122;DHT22;11730;51.248;22.534;2022-12-18T17:19:09;-6.20;99.90
23122;DHT22;11730;51.248;22.534;2022-12-18T17:21:44;-6.10;99.90
23122;DHT22;11730;51.248;22.534;2022-12-18T17:24:11;-6.00;99.90
23122;DHT22;11730;51.248;22.534;2022-12-18T17:26:38;-6.30;99.90
23122;DHT22;11730;51.248;22.534;2022-12-18T17:29:05;-6.00;99.90